Time;durP1;ratioP1;P1;durP2;ratioP2;P2;SDS_P1;SDS_P2;PMS_P1;PMS_P2;Temp;Humidity;BMP_temperature;BMP_pressure;BME280_temperature;BME280_humidity;BME280_pressure;Samples;Min_cycle;Max_cycle;Signal;HPM_P1;HPM_P2
2023/02/01 00:01:49;;;;;;;20.50;12.13;;;;;;;;;;4957037;29;20027;-73
2023/02/01 00:04:34;;;;;;;20.55;11.48;;;;;;;;;;4957997;29;20019;-73
2023/02/01 00:07:20;;;;;;;20.05;11.45;;;;;;;;;;4958010;29;20057;-73
2023/02/01 00:10:07;;;;;;;19.58;11.75;;;;;;;;;;4958582;29;20031;-73
2023/02/01 00:12:52;;;;;;;18.13;11.02;;;;;;;;;;4956676;29;20086;-72
2023/02/01 00:15:38;;;;;;;18.67;11.45;;;;;;;;;;4957529;29;20034;-75
2023/02/01 00:18:23;;;;;;;17.75;11.00;;;;;;;;;;4958103;29;20042;-74
2023/02/01 00:21:12;;;;;;;18.63;10.88;;;;;;;;;;4958022;29;20046;-73
2023/02/01 00:23:58;;;;;;;18.05;10.50;;;;;;;;;;4956946;29;20038;-74
2023/02/01 00:26:44;;;;;;;17.38;9.93;;;;;;;;;;4956798;29;20019;-74
2023/02/01 00:29:30;;;;;;;18.05;10.68;;;;;;;;;;4958233;28;20033;-72
2023/02/01 00:32:16;;;;;;;16.83;9.98;;;;;;;;;;4957792;29;20030;-73
2023/02/01 00:35:01;;;;;;;18.15;10.40;;;;;;;;;;4957343;28;20023;-74
2023/02/01 00:37:47;;;;;;;17.67;9.90;;;;;;;;;;4976521;28;20039;-73
2023/02/01 00:40:32;;;;;;;15.07;9.52;;;;;;;;;;4963418;28;20068;-73
2023/02/01 00:43:18;;;;;;;16.08;10.73;;;;;;;;;;4977485;28;20031;-73
2023/02/01 00:46:04;;;;;;;16.63;10.27;;;;;;;;;;4962366;28;20027;-75
2023/02/01 00:48:51;;;;;;;17.55;10.27;;;;;;;;;;4962931;28;20019;-73
2023/02/01 00:51:36;;;;;;;17.67;10.57;;;;;;;;;;4962505;28;20074;-74
2023/02/01 00:54:22;;;;;;;17.00;9.75;;;;;;;;;;4977159;28;20122;-72
2023/02/01 00:57:08;;;;;;;18.58;10.27;;;;;;;;;;4976236;28;20333;-73
2023/02/01 00:59:53;;;;;;;15.88;9.80;;;;;;;;;;4962679;28;20030;-74
2023/02/01 01:02:39;;;;;;;18.70;10.50;;;;;;;;;;4976140;28;20109;-72
2023/02/01 01:05:24;;;;;;;15.57;9.95;;;;;;;;;;4963037;28;20455;-73
2023/02/01 01:08:10;;;;;;;15.75;10.07;;;;;;;;;;4976665;28;20022;-74
2023/02/01 01:10:56;;;;;;;15.23;9.70;;;;;;;;;;4962551;28;20014;-73
2023/02/01 01:13:42;;;;;;;15.13;9.68;;;;;;;;;;4977080;28;20439;-74
2023/02/01 01:16:28;;;;;;;15.98;10.38;;;;;;;;;;4962904;28;20042;-74
2023/02/01 01:19:13;;;;;;;18.90;10.15;;;;;;;;;;4975737;28;20077;-73
2023/02/01 01:21:59;;;;;;;15.15;10.13;;;;;;;;;;4976244;28;20081;-72
2023/02/01 01:24:45;;;;;;;16.75;10.35;;;;;;;;;;4975782;28;20078;-74
2023/02/01 01:27:30;;;;;;;15.00;9.70;;;;;;;;;;4962272;28;20313;-73
2023/02/01 01:30:16;;;;;;;18.83;10.70;;;;;;;;;;4976120;28;20018;-74
2023/02/01 01:33:02;;;;;;;17.35;10.70;;;;;;;;;;4961704;28;20110;-74
2023/02/01 01:35:47;;;;;;;17.38;10.27;;;;;;;;;;4962514;28;20049;-75
2023/02/01 01:38:33;;;;;;;16.35;9.98;;;;;;;;;;4975947;28;20114;-74
2023/02/01 01:41:23;;;;;;;17.02;10.38;;;;;;;;;;4976557;28;20023;-74
2023/02/01 01:44:28;;;;;;;17.52;9.95;;;;;;;;;;4962490;28;20027;-74
2023/02/01 01:47:14;;;;;;;20.00;10.48;;;;;;;;;;4962361;28;20043;-74
2023/02/01 01:50:01;;;;;;;15.82;9.68;;;;;;;;;;4979950;28;20039;-72
2023/02/01 01:52:47;;;;;;;17.85;10.15;;;;;;;;;;4980032;28;20360;-73
2023/02/01 01:55:35;;;;;;;16.52;9.68;;;;;;;;;;4979614;28;20114;-74
2023/02/01 01:58:22;;;;;;;16.23;10.65;;;;;;;;;;4980606;28;20042;-72
2023/02/01 02:01:08;;;;;;;19.33;10.75;;;;;;;;;;4979769;28;20034;-73
2023/02/01 02:03:54;;;;;;;21.90;11.13;;;;;;;;;;4966239;28;20030;-73
2023/02/01 02:06:49;;;;;;;20.60;11.45;;;;;;;;;;4979810;28;20018;-74
2023/02/01 02:09:35;;;;;;;17.98;10.60;;;;;;;;;;4979414;28;20022;-74
2023/02/01 02:12:21;;;;;;;18.50;12.02;;;;;;;;;;4966513;28;20023;-73
2023/02/01 02:15:07;;;;;;;21.38;12.07;;;;;;;;;;4979605;28;20026;-74
2023/02/01 02:18:10;;;;;;;17.85;10.85;;;;;;;;;;4966122;28;20077;-73
2023/02/01 02:21:09;;;;;;;21.10;11.43;;;;;;;;;;4979525;28;20050;-75
2023/02/01 02:23:55;;;;;;;21.77;11.48;;;;;;;;;;4965676;28;20025;-73
2023/02/01 02:26:47;;;;;;;18.13;11.50;;;;;;;;;;4965545;28;20085;-73
2023/02/01 02:29:35;;;;;;;19.70;11.35;;;;;;;;;;4979258;28;20066;-74
2023/02/01 02:32:21;;;;;;;22.90;12.50;;;;;;;;;;4965308;28;20027;-74
2023/02/01 02:35:12;;;;;;;22.92;13.23;;;;;;;;;;4965092;28;20050;-74
2023/02/01 02:38:18;;;;;;;21.15;12.75;;;;;;;;;;4979355;28;20027;-74
2023/02/01 02:47:46;;;;;;;22.25;13.60;;;;;;;;;;4979409;28;20015;-74
2023/02/01 03:06:24;;;;;;;20.27;11.23;;;;;;;;;;4978970;28;20042;-74
2023/02/01 03:09:14;;;;;;;18.98;11.73;;;;;;;;;;4964929;28;20023;-74
2023/02/01 03:15:12;;;;;;;22.25;13.07;;;;;;;;;;4978928;28;20367;-73
2023/02/01 03:17:59;;;;;;;25.25;14.27;;;;;;;;;;4965460;28;20030;-73
2023/02/01 03:20:46;;;;;;;24.23;13.60;;;;;;;;;;4976885;28;20033;-73
2023/02/01 03:23:34;;;;;;;20.55;13.05;;;;;;;;;;4964273;28;20027;-73
2023/02/01 03:26:21;;;;;;;19.88;11.43;;;;;;;;;;4977645;28;20105;-74
2023/02/01 03:29:18;;;;;;;18.38;11.40;;;;;;;;;;4977960;28;20050;-73
2023/02/01 03:32:04;;;;;;;19.20;11.60;;;;;;;;;;4976920;28;20420;-74
2023/02/01 03:34:50;;;;;;;20.55;11.38;;;;;;;;;;4978087;28;20030;-74
2023/02/01 03:37:36;;;;;;;17.60;10.38;;;;;;;;;;4958217;29;20035;-74
2023/02/01 03:40:22;;;;;;;18.73;10.98;;;;;;;;;;4957786;29;20038;-73
2023/02/01 03:43:10;;;;;;;18.50;11.25;;;;;;;;;;4957977;29;20050;-74
2023/02/01 03:45:59;;;;;;;25.75;12.40;;;;;;;;;;4957789;29;20028;-74
2023/02/01 03:48:45;;;;;;;22.00;11.30;;;;;;;;;;4957395;29;20029;-73
2023/02/01 03:51:32;;;;;;;18.20;11.57;;;;;;;;;;4957776;29;20011;-73
2023/02/01 03:54:18;;;;;;;21.63;11.60;;;;;;;;;;4957594;29;20023;-74
2023/02/01 03:57:07;;;;;;;18.70;11.52;;;;;;;;;;4956993;29;20118;-72
2023/02/01 03:59:53;;;;;;;17.02;10.65;;;;;;;;;;4957611;29;20031;-74
2023/02/01 04:02:38;;;;;;;17.70;10.27;;;;;;;;;;4959089;29;20105;-73
2023/02/01 04:05:24;;;;;;;17.98;10.00;;;;;;;;;;4958127;29;20030;-72
2023/02/01 04:08:10;;;;;;;17.95;8.95;;;;;;;;;;4956907;29;20094;-74
2023/02/01 04:10:55;;;;;;;16.38;10.20;;;;;;;;;;4957747;28;20390;-73
2023/02/01 04:13:41;;;;;;;19.20;10.35;;;;;;;;;;4956876;29;20027;-76
2023/02/01 04:16:26;;;;;;;16.90;10.55;;;;;;;;;;4957755;29;20031;-73
2023/02/01 04:19:12;;;;;;;15.98;8.82;;;;;;;;;;4958331;29;20023;-74
2023/02/01 04:21:58;;;;;;;13.77;8.70;;;;;;;;;;4966985;28;20074;-70
2023/02/01 04:24:43;;;;;;;16.20;9.52;;;;;;;;;;4959492;28;20023;-73
2023/02/01 04:27:29;;;;;;;16.85;9.85;;;;;;;;;;4960086;28;20034;-74
2023/02/01 04:30:15;;;;;;;20.73;9.60;;;;;;;;;;4958439;28;20025;-74
2023/02/01 04:33:03;;;;;;;18.30;10.27;;;;;;;;;;4959894;28;20042;-73
2023/02/01 04:35:49;;;;;;;16.10;9.45;;;;;;;;;;4963656;28;20113;-73
2023/02/01 04:38:34;;;;;;;15.52;9.02;;;;;;;;;;4977244;28;20109;-74
2023/02/01 04:41:20;;;;;;;15.70;8.43;;;;;;;;;;4963456;28;20048;-73
2023/02/01 04:44:05;;;;;;;15.32;9.15;;;;;;;;;;4976997;28;20027;-74
2023/02/01 04:46:51;;;;;;;15.30;9.35;;;;;;;;;;4969553;28;20015;-75
2023/02/01 04:49:37;;;;;;;13.90;9.13;;;;;;;;;;4979582;28;20034;-74
2023/02/01 04:52:22;;;;;;;15.75;8.77;;;;;;;;;;4989676;28;20026;-73
2023/02/01 04:55:08;;;;;;;15.60;9.88;;;;;;;;;;4963465;28;20114;-74
2023/02/01 04:57:54;;;;;;;16.08;9.52;;;;;;;;;;4992602;28;20125;-74
2023/02/01 05:00:39;;;;;;;16.50;9.52;;;;;;;;;;4977402;28;20027;-74
2023/02/01 05:03:25;;;;;;;14.20;8.48;;;;;;;;;;4976630;28;20022;-75
2023/02/01 05:06:10;;;;;;;16.25;9.60;;;;;;;;;;4976950;28;20023;-74
2023/02/01 05:08:59;;;;;;;17.52;10.07;;;;;;;;;;4963350;28;20023;-76
2023/02/01 05:14:49;;;;;;;14.93;9.90;;;;;;;;;;4977295;28;20030;-74
2023/02/01 05:17:34;;;;;;;18.05;9.73;;;;;;;;;;4976642;28;20058;-74
2023/02/01 05:20:20;;;;;;;16.98;10.13;;;;;;;;;;4976948;28;20034;-73
2023/02/01 05:23:06;;;;;;;18.65;10.05;;;;;;;;;;4961048;28;20411;-75
2023/02/01 05:25:54;;;;;;;15.20;9.38;;;;;;;;;;4975810;28;20118;-75
2023/02/01 05:28:40;;;;;;;15.40;9.50;;;;;;;;;;4962839;28;20443;-73
2023/02/01 05:31:25;;;;;;;20.10;10.00;;;;;;;;;;4976534;28;20022;-74
2023/02/01 05:34:12;;;;;;;18.30;9.75;;;;;;;;;;4962301;28;20503;-73
2023/02/01 05:36:58;;;;;;;15.18;9.85;;;;;;;;;;4975812;28;20050;-74
2023/02/01 05:39:44;;;;;;;14.55;8.68;;;;;;;;;;4976397;28;20053;-73
2023/02/01 05:42:29;;;;;;;20.13;10.90;;;;;;;;;;4976296;28;20027;-73
2023/02/01 05:45:15;;;;;;;14.70;10.23;;;;;;;;;;4975316;28;20100;-72
2023/02/01 05:48:00;;;;;;;16.83;9.88;;;;;;;;;;4961379;28;20054;-74
2023/02/01 05:50:46;;;;;;;16.45;10.10;;;;;;;;;;4976117;28;20106;-72
2023/02/01 05:53:32;;;;;;;16.80;10.07;;;;;;;;;;4960832;28;20014;-73
2023/02/01 05:56:17;;;;;;;19.58;9.85;;;;;;;;;;4961936;28;20355;-72
2023/02/01 05:59:03;;;;;;;17.27;9.35;;;;;;;;;;4975959;28;20177;-73
2023/02/01 06:01:49;;;;;;;20.02;10.07;;;;;;;;;;4962024;28;20118;-73
2023/02/01 06:04:34;;;;;;;17.25;10.27;;;;;;;;;;4960543;28;20041;-72
2023/02/01 06:07:20;;;;;;;15.70;9.60;;;;;;;;;;4961876;28;20352;-71
2023/02/01 06:10:06;;;;;;;18.38;10.38;;;;;;;;;;4976016;28;20023;-71
2023/02/01 06:12:52;;;;;;;19.40;11.20;;;;;;;;;;4962144;28;20105;-72
2023/02/01 06:15:38;;;;;;;18.45;10.45;;;;;;;;;;4975373;28;20162;-73
2023/02/01 06:18:24;;;;;;;15.63;10.35;;;;;;;;;;4974908;28;20054;-71
2023/02/01 06:21:09;;;;;;;17.13;10.73;;;;;;;;;;4974534;28;20361;-73
2023/02/01 06:23:57;;;;;;;17.85;9.95;;;;;;;;;;4973556;28;20066;-73
2023/02/01 06:26:42;;;;;;;15.10;9.52;;;;;;;;;;4973124;28;20031;-72
2023/02/01 06:29:28;;;;;;;16.55;10.15;;;;;;;;;;4961754;28;20027;-72
2023/02/01 06:32:14;;;;;;;15.73;10.65;;;;;;;;;;4960907;28;20042;-71
2023/02/01 06:35:00;;;;;;;16.58;10.45;;;;;;;;;;4976845;28;20375;-72
2023/02/01 06:37:46;;;;;;;18.02;10.98;;;;;;;;;;4964317;28;20078;-71
2023/02/01 06:40:31;;;;;;;23.20;11.52;;;;;;;;;;4977904;28;20384;-72
2023/02/01 06:43:17;;;;;;;26.85;13.40;;;;;;;;;;4977775;28;20023;-72
2023/02/01 06:46:07;;;;;;;19.98;10.13;;;;;;;;;;4977904;28;20202;-71
2023/02/01 06:48:53;;;;;;;15.85;9.85;;;;;;;;;;4977754;28;20101;-74
2023/02/01 06:51:38;;;;;;;17.85;10.13;;;;;;;;;;4977913;28;20102;-74
2023/02/01 06:54:24;;;;;;;19.15;10.40;;;;;;;;;;4963481;28;20019;-72
2023/02/01 06:57:09;;;;;;;19.85;11.23;;;;;;;;;;4977858;28;20053;-72
2023/02/01 06:59:55;;;;;;;20.75;10.85;;;;;;;;;;4963264;28;20034;-72
2023/02/01 07:02:40;;;;;;;17.13;10.90;;;;;;;;;;4977435;28;20053;-72
2023/02/01 07:05:26;;;;;;;17.80;10.32;;;;;;;;;;4963168;28;20023;-71
2023/02/01 07:08:12;;;;;;;19.13;10.80;;;;;;;;;;4976250;28;20019;-73
2023/02/01 07:11:01;;;;;;;19.27;11.43;;;;;;;;;;4978377;28;20028;-72
2023/02/01 07:13:46;;;;;;;21.90;12.18;;;;;;;;;;4977884;28;20022;-72
2023/02/01 07:16:32;;;;;;;18.38;11.25;;;;;;;;;;4978283;28;20213;-71
2023/02/01 07:19:17;;;;;;;22.17;13.40;;;;;;;;;;4977675;28;20050;-74
2023/02/01 07:22:03;;;;;;;22.13;13.20;;;;;;;;;;4978786;28;20444;-70
2023/02/01 07:24:49;;;;;;;24.45;13.05;;;;;;;;;;4964046;28;20026;-72
2023/02/01 07:27:34;;;;;;;25.77;13.60;;;;;;;;;;4977949;28;20022;-73
2023/02/01 07:30:20;;;;;;;21.80;10.95;;;;;;;;;;4962931;28;20026;-72
2023/02/01 07:33:06;;;;;;;22.55;11.93;;;;;;;;;;4975642;28;20030;-73
2023/02/01 07:35:52;;;;;;;24.40;11.43;;;;;;;;;;4956743;29;20216;-72
2023/02/01 07:38:38;;;;;;;25.88;13.05;;;;;;;;;;4956321;29;20114;-73
2023/02/01 07:41:23;;;;;;;19.92;10.98;;;;;;;;;;4956430;29;20037;-72
2023/02/01 07:44:09;;;;;;;20.10;10.02;;;;;;;;;;4956503;29;20035;-71
2023/02/01 07:46:54;;;;;;;14.50;9.13;;;;;;;;;;4956417;28;20027;-72
2023/02/01 07:49:40;;;;;;;14.88;9.90;;;;;;;;;;4956988;28;20405;-74
2023/02/01 07:52:28;;;;;;;18.13;10.30;;;;;;;;;;4957586;28;20030;-72
2023/02/01 07:55:13;;;;;;;15.30;8.98;;;;;;;;;;4955917;29;20023;-73
2023/02/01 07:57:59;;;;;;;14.77;9.25;;;;;;;;;;4957116;28;20440;-71
2023/02/01 08:03:50;;;;;;;15.02;9.38;;;;;;;;;;4957546;28;20027;-73
2023/02/01 08:06:36;;;;;;;15.80;9.77;;;;;;;;;;4957281;28;20019;-72
2023/02/01 08:09:21;;;;;;;13.85;8.73;;;;;;;;;;4957187;28;20102;-71
2023/02/01 08:12:07;;;;;;;13.73;8.23;;;;;;;;;;4956717;28;20030;-73
2023/02/01 08:14:53;;;;;;;12.98;8.65;;;;;;;;;;4956847;28;20059;-72
2023/02/01 08:17:39;;;;;;;16.02;9.35;;;;;;;;;;4956532;29;20329;-74
2023/02/01 08:20:25;;;;;;;14.43;8.32;;;;;;;;;;4957360;28;20106;-73
2023/02/01 08:23:11;;;;;;;15.27;8.38;;;;;;;;;;4956748;28;20114;-73
2023/02/01 08:26:17;;;;;;;14.35;8.75;;;;;;;;;;4956786;28;20020;-73
2023/02/01 08:29:04;;;;;;;12.82;8.20;;;;;;;;;;4956382;28;20027;-72
2023/02/01 08:31:50;;;;;;;13.35;7.95;;;;;;;;;;4956187;29;20352;-72
2023/02/01 08:34:36;;;;;;;12.80;7.68;;;;;;;;;;4957439;28;20471;-71
2023/02/01 08:37:22;;;;;;;13.90;8.90;;;;;;;;;;4956957;28;20111;-72
2023/02/01 08:40:08;;;;;;;15.55;9.68;;;;;;;;;;4957464;28;20355;-73
2023/02/01 08:42:54;;;;;;;12.40;7.65;;;;;;;;;;4956604;29;20027;-73
2023/02/01 08:45:39;;;;;;;11.93;8.25;;;;;;;;;;4956337;28;20031;-73
2023/02/01 08:48:25;;;;;;;12.05;8.10;;;;;;;;;;4956150;28;20066;-73
2023/02/01 08:51:11;;;;;;;10.15;7.38;;;;;;;;;;4956256;28;20105;-71
2023/02/01 08:53:57;;;;;;;14.07;7.80;;;;;;;;;;4942705;29;20073;-75
2023/02/01 08:56:45;;;;;;;12.70;7.95;;;;;;;;;;4955723;28;20376;-74
2023/02/01 08:59:31;;;;;;;14.10;8.00;;;;;;;;;;4956195;28;20038;-73
2023/02/01 09:02:16;;;;;;;12.65;8.63;;;;;;;;;;4956174;28;20019;-73
2023/02/01 09:05:03;;;;;;;11.32;8.10;;;;;;;;;;4956581;28;20054;-73
2023/02/01 09:07:49;;;;;;;17.52;9.35;;;;;;;;;;4956239;28;20516;-75
2023/02/01 09:10:35;;;;;;;14.63;9.27;;;;;;;;;;4955187;29;20019;-72
2023/02/01 09:13:22;;;;;;;14.93;9.38;;;;;;;;;;4955937;28;20090;-74
2023/02/01 09:16:07;;;;;;;13.73;8.73;;;;;;;;;;4956180;28;20028;-73
2023/02/01 09:18:53;;;;;;;13.90;8.60;;;;;;;;;;4956260;28;20019;-73
2023/02/01 09:21:38;;;;;;;14.05;8.82;;;;;;;;;;4955801;28;20110;-74
2023/02/01 09:24:24;;;;;;;12.88;7.20;;;;;;;;;;4955715;28;20026;-72
2023/02/01 09:27:10;;;;;;;12.98;7.90;;;;;;;;;;4955073;29;20019;-74
2023/02/01 09:29:55;;;;;;;12.55;7.72;;;;;;;;;;4955840;28;20019;-71
2023/02/01 09:32:41;;;;;;;14.50;7.70;;;;;;;;;;4963531;29;20083;-72
2023/02/01 09:35:26;;;;;;;9.70;7.20;;;;;;;;;;4973250;28;20460;-74
2023/02/01 09:38:12;;;;;;;13.90;8.23;;;;;;;;;;4976406;28;20034;-74
2023/02/01 09:40:57;;;;;;;12.55;7.22;;;;;;;;;;4975026;28;20038;-73
2023/02/01 09:43:49;;;;;;;11.25;6.95;;;;;;;;;;4975248;28;20022;-74
2023/02/01 09:46:34;;;;;;;11.80;7.03;;;;;;;;;;4948004;28;20030;-72
2023/02/01 09:49:23;;;;;;;10.90;6.53;;;;;;;;;;4974757;28;20472;-74
2023/02/01 09:52:12;;;;;;;11.35;6.60;;;;;;;;;;4975493;28;20057;-73
2023/02/01 09:55:02;;;;;;;9.95;6.63;;;;;;;;;;4974896;28;20033;-71
2023/02/01 09:58:08;;;;;;;12.13;7.50;;;;;;;;;;4974650;28;20034;-73
2023/02/01 10:00:58;;;;;;;12.50;7.45;;;;;;;;;;4974473;28;20061;-73
2023/02/01 10:03:43;;;;;;;17.77;8.32;;;;;;;;;;4961499;28;20023;-73
2023/02/01 10:06:41;;;;;;;11.10;7.80;;;;;;;;;;4975300;28;20031;-74
2023/02/01 10:09:41;;;;;;;12.18;7.40;;;;;;;;;;4977258;28;20355;-74
2023/02/01 10:12:46;;;;;;;13.10;7.90;;;;;;;;;;4980801;28;20460;-74
2023/02/01 10:15:52;;;;;;;10.55;7.28;;;;;;;;;;4991850;28;20019;-71
2023/02/01 10:18:38;;;;;;;11.88;7.32;;;;;;;;;;4988108;28;20079;-71
2023/02/01 10:21:41;;;;;;;15.32;7.85;;;;;;;;;;4984342;28;20030;-73
2023/02/01 10:24:36;;;;;;;11.98;7.80;;;;;;;;;;4981114;28;20038;-73
2023/02/01 10:27:22;;;;;;;11.93;7.50;;;;;;;;;;4983911;28;20408;-73
2023/02/01 10:30:24;;;;;;;12.05;7.07;;;;;;;;;;4979677;28;20029;-73
2023/02/01 10:33:15;;;;;;;10.55;6.20;;;;;;;;;;4965292;28;20363;-74
2023/02/01 10:36:16;;;;;;;13.07;6.93;;;;;;;;;;4978762;28;20062;-73
2023/02/01 10:39:03;;;;;;;11.25;7.32;;;;;;;;;;4979213;28;20499;-73
2023/02/01 10:41:49;;;;;;;10.63;7.13;;;;;;;;;;4978847;28;20454;-73
2023/02/01 10:44:38;;;;;;;11.18;7.35;;;;;;;;;;4979181;28;20035;-74
2023/02/01 10:47:24;;;;;;;10.93;6.38;;;;;;;;;;4978903;28;20034;-73
2023/02/01 10:50:18;;;;;;;10.43;6.47;;;;;;;;;;4979253;28;20019;-73
2023/02/01 10:53:11;;;;;;;12.57;7.00;;;;;;;;;;4979799;28;20042;-74
2023/02/01 10:55:56;;;;;;;16.35;6.65;;;;;;;;;;4965143;28;20026;-74
2023/02/01 10:58:47;;;;;;;9.30;6.53;;;;;;;;;;4979263;28;20324;-73
2023/02/01 11:01:44;;;;;;;9.50;6.07;;;;;;;;;;4980088;28;20034;-73
2023/02/01 11:04:33;;;;;;;8.85;6.28;;;;;;;;;;4979303;28;20026;-74
2023/02/01 11:07:25;;;;;;;11.45;6.60;;;;;;;;;;4979203;28;20504;-72
2023/02/01 11:10:31;;;;;;;8.38;5.65;;;;;;;;;;4978648;28;20015;-74
2023/02/01 11:13:17;;;;;;;9.90;6.50;;;;;;;;;;4979323;28;20440;-72
2023/02/01 11:16:04;;;;;;;8.20;5.10;;;;;;;;;;4978661;28;20082;-73
2023/02/01 11:18:53;;;;;;;8.25;5.78;;;;;;;;;;4979718;28;20102;-75
2023/02/01 11:21:38;;;;;;;8.45;5.63;;;;;;;;;;4964600;28;20033;-73
2023/02/01 11:24:24;;;;;;;11.35;5.75;;;;;;;;;;4978540;28;22352;-72
2023/02/01 11:27:19;;;;;;;16.05;6.80;;;;;;;;;;4964852;28;20100;-72
2023/02/01 11:30:05;;;;;;;10.55;6.32;;;;;;;;;;4964584;28;20019;-74
2023/02/01 11:32:51;;;;;;;11.40;6.60;;;;;;;;;;4977957;28;20050;-72
2023/02/01 11:35:38;;;;;;;12.73;6.57;;;;;;;;;;4978490;28;20380;-73
2023/02/01 11:38:30;;;;;;;8.60;6.07;;;;;;;;;;4963875;28;20105;-74
2023/02/01 11:41:27;;;;;;;7.93;5.28;;;;;;;;;;4964177;28;20169;-73
2023/02/01 11:44:22;;;;;;;10.80;5.53;;;;;;;;;;4977851;28;20055;-73
2023/02/01 11:47:28;;;;;;;10.48;6.03;;;;;;;;;;4977428;28;20081;-74
2023/02/01 11:50:18;;;;;;;10.77;5.82;;;;;;;;;;4977648;28;20085;-74
2023/02/01 11:53:04;;;;;;;8.98;5.60;;;;;;;;;;4977638;28;20023;-74
2023/02/01 11:55:49;;;;;;;8.07;5.63;;;;;;;;;;4978148;28;20035;-74
2023/02/01 11:58:50;;;;;;;9.68;5.70;;;;;;;;;;4978467;28;20023;-74
2023/02/01 12:01:36;;;;;;;8.80;5.82;;;;;;;;;;4977488;28;20116;-74
2023/02/01 12:04:37;;;;;;;7.30;5.30;;;;;;;;;;4978023;28;20030;-73
2023/02/01 12:07:40;;;;;;;9.93;6.40;;;;;;;;;;4978173;28;20041;-73
2023/02/01 12:10:44;;;;;;;11.25;6.30;;;;;;;;;;4977449;28;20106;-73
2023/02/01 12:13:32;;;;;;;8.75;5.78;;;;;;;;;;4977613;28;20019;-73
2023/02/01 12:16:38;;;;;;;9.88;5.28;;;;;;;;;;4978287;28;20050;-74
2023/02/01 12:19:34;;;;;;;8.68;5.43;;;;;;;;;;4977515;28;20019;-74
2023/02/01 12:22:28;;;;;;;10.73;5.35;;;;;;;;;;4963475;28;20026;-73
2023/02/01 12:25:13;;;;;;;9.20;5.47;;;;;;;;;;4963622;28;20031;-74
2023/02/01 12:28:37;;;;;;;7.43;4.97;;;;;;;;;;4977998;28;20018;-73
2023/02/01 12:31:32;;;;;;;7.47;4.72;;;;;;;;;;4898104;29;20024;-74
2023/02/01 12:34:37;;;;;;;7.45;4.80;;;;;;;;;;4898367;29;20379;-74
2023/02/01 12:37:31;;;;;;;8.07;4.75;;;;;;;;;;4976678;28;20415;-73
2023/02/01 12:40:25;;;;;;;6.80;4.50;;;;;;;;;;4977090;28;20045;-73
2023/02/01 12:43:17;;;;;;;6.75;4.22;;;;;;;;;;4977666;28;20034;-74
2023/02/01 12:46:05;;;;;;;7.25;4.40;;;;;;;;;;4976700;28;20027;-73
2023/02/01 12:48:54;;;;;;;8.73;5.00;;;;;;;;;;4977208;28;20023;-73
2023/02/01 12:51:41;;;;;;;9.38;4.47;;;;;;;;;;4963139;28;20118;-73
2023/02/01 12:54:35;;;;;;;7.75;4.07;;;;;;;;;;4976466;28;20094;-74
2023/02/01 12:57:30;;;;;;;7.05;4.05;;;;;;;;;;4963459;28;20360;-73
2023/02/01 13:00:35;;;;;;;4.95;3.78;;;;;;;;;;4977228;28;20022;-74
2023/02/01 13:03:42;;;;;;;10.32;4.40;;;;;;;;;;4976544;28;20027;-74
2023/02/01 13:06:31;;;;;;;7.95;4.00;;;;;;;;;;4976588;28;20102;-74
2023/02/01 13:09:37;;;;;;;5.88;3.70;;;;;;;;;;4976129;28;20022;-73
2023/02/01 13:12:22;;;;;;;5.95;3.97;;;;;;;;;;4975927;28;20030;-73
2023/02/01 13:15:12;;;;;;;7.32;4.13;;;;;;;;;;4977071;28;20034;-74
2023/02/01 13:18:00;;;;;;;5.65;3.70;;;;;;;;;;4975974;28;20054;-74
2023/02/01 13:20:58;;;;;;;11.15;4.30;;;;;;;;;;4976830;28;20034;-74
2023/02/01 13:23:46;;;;;;;7.97;4.55;;;;;;;;;;4977074;28;20033;-74
2023/02/01 13:26:32;;;;;;;9.82;4.35;;;;;;;;;;4996268;28;20038;-73
2023/02/01 13:29:20;;;;;;;5.97;3.55;;;;;;;;;;4976668;28;20039;-74
2023/02/01 13:32:09;;;;;;;10.77;4.53;;;;;;;;;;4976296;28;20038;-73
2023/02/01 13:34:58;;;;;;;6.35;3.72;;;;;;;;;;4963256;28;20038;-72
2023/02/01 13:38:02;;;;;;;6.78;3.80;;;;;;;;;;4976421;28;20467;-74
2023/02/01 13:40:54;;;;;;;7.38;3.72;;;;;;;;;;4975735;28;20027;-73
2023/02/01 13:43:41;;;;;;;7.88;3.70;;;;;;;;;;4965237;28;20042;-71
2023/02/01 13:46:27;;;;;;;6.25;3.60;;;;;;;;;;4984046;28;20027;-74
2023/02/01 13:49:25;;;;;;;7.97;3.80;;;;;;;;;;4962561;28;20023;-74
2023/02/01 13:52:36;;;;;;;5.57;3.40;;;;;;;;;;4975641;28;20393;-75
2023/02/01 13:55:22;;;;;;;4.90;3.20;;;;;;;;;;4961877;28;20368;-74
2023/02/01 13:58:08;;;;;;;7.25;3.90;;;;;;;;;;4961933;28;20054;-73
2023/02/01 14:01:13;;;;;;;7.72;3.83;;;;;;;;;;4961672;28;20101;-72
2023/02/01 14:04:03;;;;;;;7.45;3.38;;;;;;;;;;4976475;28;20026;-74
2023/02/01 14:06:51;;;;;;;6.68;3.25;;;;;;;;;;4962166;28;20359;-73
2023/02/01 14:09:38;;;;;;;7.88;3.65;;;;;;;;;;4975356;28;20023;-74
2023/02/01 14:12:42;;;;;;;9.43;3.13;;;;;;;;;;4976414;28;20098;-74
2023/02/01 14:15:28;;;;;;;4.93;3.10;;;;;;;;;;4961315;28;20121;-74
2023/02/01 14:18:32;;;;;;;7.05;3.47;;;;;;;;;;4962397;28;20459;-75
2023/02/01 14:21:21;;;;;;;6.38;3.38;;;;;;;;;;4961457;28;20055;-73
2023/02/01 14:24:10;;;;;;;5.57;3.88;;;;;;;;;;4975608;28;20023;-73
2023/02/01 14:26:56;;;;;;;6.75;3.72;;;;;;;;;;4961959;28;20031;-74
2023/02/01 14:29:43;;;;;;;6.72;3.50;;;;;;;;;;4962025;28;20042;-73
2023/02/01 14:32:33;;;;;;;7.65;3.70;;;;;;;;;;4975130;28;20095;-74
2023/02/01 14:35:20;;;;;;;6.05;3.45;;;;;;;;;;4961502;28;20057;-74
2023/02/01 15:23:38;;;;;;;7.78;3.78;;;;;;;;;;5582208;23;19929;-74
2023/02/01 15:26:28;;;;;;;6.38;3.72;;;;;;;;;;4979087;28;20464;-76
2023/02/01 15:29:14;;;;;;;6.20;3.28;;;;;;;;;;4981994;28;20015;-76
2023/02/01 15:32:00;;;;;;;6.68;3.80;;;;;;;;;;4978404;28;20050;-75
2023/02/01 15:34:47;;;;;;;9.50;5.78;;;;;;;;;;4964521;28;20053;-75
2023/02/01 15:37:33;;;;;;;8.30;4.95;;;;;;;;;;4977376;28;20026;-75
2023/02/01 15:40:21;;;;;;;6.60;4.38;;;;;;;;;;4964567;28;20030;-74
2023/02/01 15:43:11;;;;;;;10.13;4.30;;;;;;;;;;4964140;28;20027;-75
2023/02/01 15:45:58;;;;;;;6.45;3.90;;;;;;;;;;4977400;28;20018;-76
2023/02/01 15:48:54;;;;;;;6.88;4.30;;;;;;;;;;4978161;28;20117;-75
2023/02/01 15:51:43;;;;;;;5.13;3.70;;;;;;;;;;4978320;28;20031;-75
2023/02/01 15:54:48;;;;;;;7.07;4.10;;;;;;;;;;4964082;28;20142;-74
2023/02/01 15:57:35;;;;;;;9.25;4.60;;;;;;;;;;4978358;28;20029;-75
2023/02/01 16:00:23;;;;;;;6.53;4.25;;;;;;;;;;4978180;28;20019;-74
2023/02/01 16:03:24;;;;;;;6.43;4.32;;;;;;;;;;4964217;28;20027;-75
2023/02/01 16:06:22;;;;;;;6.97;4.80;;;;;;;;;;4977229;28;20030;-76
2023/02/01 16:09:12;;;;;;;8.80;5.05;;;;;;;;;;4977202;28;20030;-75
2023/02/01 16:11:59;;;;;;;9.73;5.53;;;;;;;;;;4963717;28;20105;-75
2023/02/01 16:14:44;;;;;;;8.98;5.45;;;;;;;;;;4978027;28;20019;-75
2023/02/01 16:17:30;;;;;;;8.73;5.07;;;;;;;;;;4976897;28;20092;-75
2023/02/01 16:20:15;;;;;;;10.98;5.75;;;;;;;;;;4963862;28;20035;-75
2023/02/01 16:23:02;;;;;;;11.43;5.97;;;;;;;;;;4976217;28;20042;-74
2023/02/01 16:25:47;;;;;;;9.57;5.90;;;;;;;;;;4976766;28;20023;-74
2023/02/01 16:28:33;;;;;;;9.30;5.70;;;;;;;;;;4976853;28;20458;-74
2023/02/01 16:31:21;;;;;;;8.55;5.45;;;;;;;;;;4963654;28;20026;-75
2023/02/01 16:34:13;;;;;;;10.20;5.65;;;;;;;;;;4987042;28;20023;-73
2023/02/01 16:36:58;;;;;;;10.95;5.25;;;;;;;;;;4988720;28;20030;-74
2023/02/01 16:39:44;;;;;;;9.70;5.80;;;;;;;;;;4987548;28;20038;-75
2023/02/01 16:42:30;;;;;;;8.52;5.90;;;;;;;;;;4963608;28;20085;-75
2023/02/01 16:45:16;;;;;;;9.52;6.03;;;;;;;;;;4977816;28;20023;-74
2023/02/01 16:48:04;;;;;;;11.55;6.75;;;;;;;;;;4976422;28;20364;-75
2023/02/01 16:50:51;;;;;;;12.95;7.30;;;;;;;;;;4962946;28;20137;-75
2023/02/01 16:53:36;;;;;;;12.02;7.20;;;;;;;;;;4975995;28;20026;-75
2023/02/01 16:56:23;;;;;;;12.50;7.15;;;;;;;;;;4963246;28;20015;-74
2023/02/01 16:59:09;;;;;;;11.45;6.72;;;;;;;;;;4977499;28;20031;-73
2023/02/01 17:01:55;;;;;;;10.93;6.95;;;;;;;;;;4963125;28;20448;-74
2023/02/01 17:04:43;;;;;;;10.18;6.38;;;;;;;;;;4977205;28;20415;-73
2023/02/01 17:07:29;;;;;;;12.73;7.28;;;;;;;;;;4962894;28;20027;-74
2023/02/01 17:10:21;;;;;;;12.13;7.32;;;;;;;;;;4976151;28;20023;-74
2023/02/01 17:13:13;;;;;;;11.40;6.90;;;;;;;;;;4963124;28;20030;-74
2023/02/01 17:16:11;;;;;;;11.27;7.28;;;;;;;;;;4975759;28;20018;-74
2023/02/01 17:18:59;;;;;;;12.80;7.60;;;;;;;;;;4975878;28;20027;-75
2023/02/01 17:21:46;;;;;;;12.50;7.07;;;;;;;;;;4976050;28;20019;-74
2023/02/01 17:24:32;;;;;;;12.18;7.88;;;;;;;;;;4972022;28;20066;-74
2023/02/01 17:27:17;;;;;;;11.95;6.93;;;;;;;;;;4976430;28;20061;-75
2023/02/01 17:30:03;;;;;;;12.75;7.05;;;;;;;;;;4974766;28;20031;-75
2023/02/01 17:32:49;;;;;;;13.35;6.88;;;;;;;;;;4976113;28;20019;-75
2023/02/01 17:35:34;;;;;;;10.85;6.90;;;;;;;;;;4976352;28;20424;-75
2023/02/01 17:38:20;;;;;;;10.25;7.03;;;;;;;;;;4974406;28;20022;-74
2023/02/01 17:41:06;;;;;;;11.77;7.22;;;;;;;;;;4974797;28;20023;-75
2023/02/01 17:43:52;;;;;;;10.25;6.95;;;;;;;;;;4976102;28;20030;-74
2023/02/01 17:46:37;;;;;;;13.77;7.22;;;;;;;;;;4976061;28;20045;-72
2023/02/01 17:49:23;;;;;;;12.35;7.75;;;;;;;;;;4976325;28;20015;-74
2023/02/01 17:52:15;;;;;;;12.65;7.57;;;;;;;;;;4975707;28;20011;-74